sensor_id;sensor_type;location;lat;lon;timestamp;temperature;humidity
23719;DHT22;43322;52.230;5.702;2023-02-01T00:02:12;5.30;99.90
23719;DHT22;43322;52.230;5.702;2023-02-01T00:04:39;5.60;99.90
23719;DHT22;43322;52.230;5.702;2023-02-01T00:07:06;5.00;99.90
23719;DHT22;43322;52.230;5.702;2023-02-01T00:09:33;5.00;99.90
23719;DHT22;43322;52.230;5.702;2023-02-01T00:11:59;5.00;99.90
23719;DHT22;43322;52.230;5.702;2023-02-01T00:14:28;4.80;99.90
23719;DHT22;43322;52.230;5.702;2023-02-01T00:16:55;4.90;99.90
23719;DHT22;43322;52.230;5.702;2023-02-01T00:19:23;4.90;99.90
23719;DHT22;43322;52.230;5.702;2023-02-01T00:21:50;4.80;99.90
23719;DHT22;43322;52.230;5.702;2023-02-01T00:24:16;4.90;99.90
23719;DHT22;43322;52.230;5.702;2023-02-01T00:26:44;4.80;99.90
23719;DHT22;43322;52.230;5.702;2023-02-01T00:29:14;4.90;99.90
23719;DHT22;43322;52.230;5.702;2023-02-01T00:31:41;4.90;99.90
23719;DHT22;43322;52.230;5.702;2023-02-01T00:34:10;4.80;99.90
23719;DHT22;43322;52.230;5.702;2023-02-01T00:36:39;4.80;99.90
23719;DHT22;43322;52.230;5.702;2023-02-01T00:39:06;4.90;99.90
23719;DHT22;43322;52.230;5.702;2023-02-01T00:41:33;5.00;99.90
23719;DHT22;43322;52.230;5.702;2023-02-01T00:44:00;5.00;99.90
23719;DHT22;43322;52.230;5.702;2023-02-01T00:46:27;5.00;99.90
23719;DHT22;43322;52.230;5.702;2023-02-01T00:48:54;4.90;99.90
23719;DHT22;43322;52.230;5.702;2023-02-01T00:51:23;4.90;99.90
23719;DHT22;43322;52.230;5.702;2023-02-01T00:53:52;4.90;99.90
23719;DHT22;43322;52.230;5.702;2023-02-01T00:56:19;4.90;99.90
23719;DHT22;43322;52.230;5.702;2023-02-01T00:58:46;5.00;99.90
23719;DHT22;43322;52.230;5.702;2023-02-01T01:01:15;5.00;99.90
23719;DHT22;43322;52.230;5.702;2023-02-01T01:03:43;5.20;99.90
23719;DHT22;43322;52.230;5.702;2023-02-01T01:06:12;5.80;99.90
23719;DHT22;43322;52.230;5.702;2023-02-01T01:08:40;5.20;99.90
23719;DHT22;43322;52.230;5.702;2023-02-01T01:11:09;5.10;99.90
23719;DHT22;43322;52.230;5.702;2023-02-01T01:13:37;5.20;99.90
23719;DHT22;43322;52.230;5.702;2023-02-01T01:16:06;5.10;99.90
23719;DHT22;43322;52.230;5.702;2023-02-01T01:18:34;5.20;99.90
23719;DHT22;43322;52.230;5.702;2023-02-01T01:21:03;5.10;99.90
23719;DHT22;43322;52.230;5.702;2023-02-01T01:23:30;5.20;99.90
23719;DHT22;43322;52.230;5.702;2023-02-01T01:25:57;5.10;99.90
23719;DHT22;43322;52.230;5.702;2023-02-01T01:28:25;5.10;99.90
23719;DHT22;43322;52.230;5.702;2023-02-01T01:30:52;5.10;99.90
23719;DHT22;43322;52.230;5.702;2023-02-01T01:33:18;5.10;99.90
23719;DHT22;43322;52.230;5.702;2023-02-01T01:35:45;5.20;99.90
23719;DHT22;43322;52.230;5.702;2023-02-01T01:38:12;5.20;99.90
23719;DHT22;43322;52.230;5.702;2023-02-01T01:40:39;5.10;99.90
23719;DHT22;43322;52.230;5.702;2023-02-01T01:43:13;5.20;99.90
23719;DHT22;43322;52.230;5.702;2023-02-01T01:45:42;5.20;99.90
23719;DHT22;43322;52.230;5.702;2023-02-01T01:48:13;5.20;99.90
23719;DHT22;43322;52.230;5.702;2023-02-01T01:50:46;5.20;99.90
23719;DHT22;43322;52.230;5.702;2023-02-01T01:53:17;5.30;99.90
23719;DHT22;43322;52.230;5.702;2023-02-01T01:55:45;5.20;99.90
23719;DHT22;43322;52.230;5.702;2023-02-01T01:58:17;5.30;99.90
23719;DHT22;43322;52.230;5.702;2023-02-01T02:00:46;5.30;99.90
23719;DHT22;43322;52.230;5.702;2023-02-01T02:03:17;5.40;99.90
23719;DHT22;43322;52.230;5.702;2023-02-01T02:05:46;5.50;99.90
23719;DHT22;43322;52.230;5.702;2023-02-01T02:08:14;5.60;99.90
23719;DHT22;43322;52.230;5.702;2023-02-01T02:10:41;5.70;99.90
23719;DHT22;43322;52.230;5.702;2023-02-01T02:13:28;5.70;99.90
23719;DHT22;43322;52.230;5.702;2023-02-01T02:16:05;5.70;99.90
23719;DHT22;43322;52.230;5.702;2023-02-01T02:18:42;5.70;99.90
23719;DHT22;43322;52.230;5.702;2023-02-01T02:21:14;5.80;99.90
23719;DHT22;43322;52.230;5.702;2023-02-01T02:24:14;5.80;99.90
23719;DHT22;43322;52.230;5.702;2023-02-01T02:27:01;5.80;99.90
23719;DHT22;43322;52.230;5.702;2023-02-01T02:29:50;5.90;99.90
23719;DHT22;43322;52.230;5.702;2023-02-01T02:32:42;5.80;99.90
23719;DHT22;43322;52.230;5.702;2023-02-01T02:35:20;5.80;99.90
23719;DHT22;43322;52.230;5.702;2023-02-01T02:37:53;5.80;99.90
23719;DHT22;43322;52.230;5.702;2023-02-01T02:40:27;5.90;99.90
23719;DHT22;43322;52.230;5.702;2023-02-01T02:43:03;5.90;99.90
23719;DHT22;43322;52.230;5.702;2023-02-01T02:45:53;6.00;99.90
23719;DHT22;43322;52.230;5.702;2023-02-01T02:48:44;5.90;99.90
23719;DHT22;43322;52.230;5.702;2023-02-01T02:51:16;6.00;99.90
23719;DHT22;43322;52.230;5.702;2023-02-01T02:54:07;6.00;99.90
23719;DHT22;43322;52.230;5.702;2023-02-01T02:56:53;6.10;99.90
23719;DHT22;43322;52.230;5.702;2023-02-01T02:59:40;6.10;99.90
23719;DHT22;43322;52.230;5.702;2023-02-01T03:02:27;6.10;99.90
23719;DHT22;43322;52.230;5.702;2023-02-01T03:05:11;6.10;99.90
23719;DHT22;43322;52.230;5.702;2023-02-01T03:08:04;6.00;99.90
23719;DHT22;43322;52.230;5.702;2023-02-01T03:10:40;6.10;99.90
23719;DHT22;43322;52.230;5.702;2023-02-01T03:13:11;6.00;99.90
23719;DHT22;43322;52.230;5.702;2023-02-01T03:15:40;5.90;99.90
23719;DHT22;43322;52.230;5.702;2023-02-01T03:18:13;6.10;99.90
23719;DHT22;43322;52.230;5.702;2023-02-01T03:20:46;6.10;99.90
23719;DHT22;43322;52.230;5.702;2023-02-01T03:23:16;6.10;99.90
23719;DHT22;43322;52.230;5.702;2023-02-01T03:25:48;6.30;99.90
23719;DHT22;43322;52.230;5.702;2023-02-01T03:28:17;6.20;99.90
23719;DHT22;43322;52.230;5.702;2023-02-01T03:30:48;6.10;99.90
23719;DHT22;43322;52.230;5.702;2023-02-01T03:33:18;6.20;99.90
23719;DHT22;43322;52.230;5.702;2023-02-01T03:35:54;6.20;99.90
23719;DHT22;43322;52.230;5.702;2023-02-01T03:38:28;6.10;99.90
23719;DHT22;43322;52.230;5.702;2023-02-01T03:41:03;6.10;99.90
23719;DHT22;43322;52.230;5.702;2023-02-01T03:43:38;6.00;99.90
23719;DHT22;43322;52.230;5.702;2023-02-01T03:46:12;7.10;99.90
23719;DHT22;43322;52.230;5.702;2023-02-01T03:48:44;5.90;99.90
23719;DHT22;43322;52.230;5.702;2023-02-01T03:51:11;5.80;99.90
23719;DHT22;43322;52.230;5.702;2023-02-01T03:53:40;5.90;99.90
23719;DHT22;43322;52.230;5.702;2023-02-01T03:56:08;6.00;99.90
23719;DHT22;43322;52.230;5.702;2023-02-01T03:58:37;5.80;99.90
23719;DHT22;43322;52.230;5.702;2023-02-01T04:01:04;5.90;99.90
23719;DHT22;43322;52.230;5.702;2023-02-01T04:03:31;5.80;99.90
23719;DHT22;43322;52.230;5.702;2023-02-01T04:05:58;5.70;99.90
23719;DHT22;43322;52.230;5.702;2023-02-01T04:08:25;5.70;99.90
23719;DHT22;43322;52.230;5.702;2023-02-01T04:10:53;5.80;99.90
23719;DHT22;43322;52.230;5.702;2023-02-01T04:13:20;5.80;99.90
23719;DHT22;43322;52.230;5.702;2023-02-01T04:15:47;5.90;99.90
23719;DHT22;43322;52.230;5.702;2023-02-01T04:18:15;6.00;99.90
23719;DHT22;43322;52.230;5.702;2023-02-01T04:20:43;6.00;99.90
23719;DHT22;43322;52.230;5.702;2023-02-01T04:23:10;5.90;99.90
23719;DHT22;43322;52.230;5.702;2023-02-01T04:25:37;5.90;99.90
23719;DHT22;43322;52.230;5.702;2023-02-01T04:28:05;6.00;99.90
23719;DHT22;43322;52.230;5.702;2023-02-01T04:30:32;6.00;99.90
23719;DHT22;43322;52.230;5.702;2023-02-01T04:32:59;6.00;99.90
23719;DHT22;43322;52.230;5.702;2023-02-01T04:35:27;6.00;99.90
23719;DHT22;43322;52.230;5.702;2023-02-01T04:37:53;6.10;99.90
23719;DHT22;43322;52.230;5.702;2023-02-01T04:40:20;6.10;99.90
23719;DHT22;43322;52.230;5.702;2023-02-01T04:42:47;6.20;99.90
23719;DHT22;43322;52.230;5.702;2023-02-01T04:45:15;6.20;99.90
23719;DHT22;43322;52.230;5.702;2023-02-01T04:47:42;6.20;99.90
23719;DHT22;43322;52.230;5.702;2023-02-01T04:50:10;6.20;99.90
23719;DHT22;43322;52.230;5.702;2023-02-01T04:52:37;6.10;99.90
23719;DHT22;43322;52.230;5.702;2023-02-01T04:55:04;6.10;99.90
23719;DHT22;43322;52.230;5.702;2023-02-01T04:57:31;6.10;99.90
23719;DHT22;43322;52.230;5.702;2023-02-01T04:59:58;5.70;99.90
23719;DHT22;43322;52.230;5.702;2023-02-01T05:02:26;6.10;99.90
23719;DHT22;43322;52.230;5.702;2023-02-01T05:04:52;6.00;99.90
23719;DHT22;43322;52.230;5.702;2023-02-01T05:07:21;6.00;99.90
23719;DHT22;43322;52.230;5.702;2023-02-01T05:09:48;6.10;99.90
23719;DHT22;43322;52.230;5.702;2023-02-01T05:12:14;6.10;99.90
23719;DHT22;43322;52.230;5.702;2023-02-01T05:14:58;6.10;99.90
23719;DHT22;43322;52.230;5.702;2023-02-01T05:17:26;6.20;99.90
23719;DHT22;43322;52.230;5.702;2023-02-01T05:19:53;6.10;99.90
23719;DHT22;43322;52.230;5.702;2023-02-01T05:22:19;6.10;99.90
23719;DHT22;43322;52.230;5.702;2023-02-01T05:24:46;6.20;99.90
23719;DHT22;43322;52.230;5.702;2023-02-01T05:27:13;6.20;99.90
23719;DHT22;43322;52.230;5.702;2023-02-01T05:29:40;6.10;99.90
23719;DHT22;43322;52.230;5.702;2023-02-01T05:32:09;6.10;99.90
23719;DHT22;43322;52.230;5.702;2023-02-01T05:34:37;6.10;99.90
23719;DHT22;43322;52.230;5.702;2023-02-01T05:37:04;6.10;99.90
23719;DHT22;43322;52.230;5.702;2023-02-01T05:39:31;6.00;99.90
23719;DHT22;43322;52.230;5.702;2023-02-01T05:41:58;6.00;99.90
23719;DHT22;43322;52.230;5.702;2023-02-01T05:44:24;6.10;99.90
23719;DHT22;43322;52.230;5.702;2023-02-01T05:46:51;6.10;99.90
23719;DHT22;43322;52.230;5.702;2023-02-01T05:49:18;6.10;99.90
23719;DHT22;43322;52.230;5.702;2023-02-01T05:51:46;6.20;99.90
23719;DHT22;43322;52.230;5.702;2023-02-01T05:54:13;6.10;99.90
23719;DHT22;43322;52.230;5.702;2023-02-01T05:56:40;6.10;99.90
23719;DHT22;43322;52.230;5.702;2023-02-01T05:59:07;6.10;99.90
23719;DHT22;43322;52.230;5.702;2023-02-01T06:01:34;6.00;99.90
23719;DHT22;43322;52.230;5.702;2023-02-01T06:04:00;6.00;99.90
23719;DHT22;43322;52.230;5.702;2023-02-01T06:06:27;6.00;99.90
23719;DHT22;43322;52.230;5.702;2023-02-01T06:08:55;6.20;99.90
23719;DHT22;43322;52.230;5.702;2023-02-01T06:11:22;6.10;99.90
23719;DHT22;43322;52.230;5.702;2023-02-01T06:13:49;6.30;99.90
23719;DHT22;43322;52.230;5.702;2023-02-01T06:16:15;6.20;99.90
23719;DHT22;43322;52.230;5.702;2023-02-01T06:18:42;6.20;99.90
23719;DHT22;43322;52.230;5.702;2023-02-01T06:21:09;6.10;99.90
23719;DHT22;43322;52.230;5.702;2023-02-01T06:23:36;6.10;99.90
23719;DHT22;43322;52.230;5.702;2023-02-01T06:26:05;6.10;99.90
23719;DHT22;43322;52.230;5.702;2023-02-01T06:28:33;6.20;99.90
23719;DHT22;43322;52.230;5.702;2023-02-01T06:31:03;6.20;99.90
23719;DHT22;43322;52.230;5.702;2023-02-01T06:33:32;6.10;99.90
23719;DHT22;43322;52.230;5.702;2023-02-01T06:35:59;6.00;99.90
23719;DHT22;43322;52.230;5.702;2023-02-01T06:38:26;5.90;99.90
23719;DHT22;43322;52.230;5.702;2023-02-01T06:40:54;5.80;99.90
23719;DHT22;43322;52.230;5.702;2023-02-01T06:43:22;6.00;99.90
23719;DHT22;43322;52.230;5.702;2023-02-01T06:45:50;5.90;99.90
23719;DHT22;43322;52.230;5.702;2023-02-01T06:48:17;5.90;99.90
23719;DHT22;43322;52.230;5.702;2023-02-01T06:50:44;5.90;99.90
23719;DHT22;43322;52.230;5.702;2023-02-01T06:53:11;5.90;99.90
23719;DHT22;43322;52.230;5.702;2023-02-01T06:55:38;5.90;99.90
23719;DHT22;43322;52.230;5.702;2023-02-01T06:58:05;6.00;99.90
23719;DHT22;43322;52.230;5.702;2023-02-01T07:00:33;5.90;99.90
23719;DHT22;43322;52.230;5.702;2023-02-01T07:03:00;5.80;99.90
23719;DHT22;43322;52.230;5.702;2023-02-01T07:05:27;5.90;99.90
23719;DHT22;43322;52.230;5.702;2023-02-01T07:07:54;5.80;99.90
23719;DHT22;43322;52.230;5.702;2023-02-01T07:10:21;5.80;99.90
23719;DHT22;43322;52.230;5.702;2023-02-01T07:12:48;5.70;99.90
23719;DHT22;43322;52.230;5.702;2023-02-01T07:15:14;5.70;99.90
23719;DHT22;43322;52.230;5.702;2023-02-01T07:17:43;5.80;99.90
23719;DHT22;43322;52.230;5.702;2023-02-01T07:20:11;5.80;99.90
23719;DHT22;43322;52.230;5.702;2023-02-01T07:22:38;5.90;99.90
23719;DHT22;43322;52.230;5.702;2023-02-01T07:25:05;5.90;99.90
23719;DHT22;43322;52.230;5.702;2023-02-01T07:27:33;5.80;99.90
23719;DHT22;43322;52.230;5.702;2023-02-01T07:30:00;5.80;99.90
23719;DHT22;43322;52.230;5.702;2023-02-01T07:32:27;5.80;99.90
23719;DHT22;43322;52.230;5.702;2023-02-01T07:34:56;5.80;99.90
23719;DHT22;43322;52.230;5.702;2023-02-01T07:37:22;5.80;99.90
23719;DHT22;43322;52.230;5.702;2023-02-01T07:39:50;5.80;99.90
23719;DHT22;43322;52.230;5.702;2023-02-01T07:42:17;5.90;99.90
23719;DHT22;43322;52.230;5.702;2023-02-01T07:44:44;5.90;99.90
23719;DHT22;43322;52.230;5.702;2023-02-01T07:47:10;5.90;99.90
23719;DHT22;43322;52.230;5.702;2023-02-01T07:49:37;6.00;99.90
23719;DHT22;43322;52.230;5.702;2023-02-01T07:52:05;6.00;99.90
23719;DHT22;43322;52.230;5.702;2023-02-01T07:54:32;6.00;99.90
23719;DHT22;43322;52.230;5.702;2023-02-01T07:56:59;6.00;99.90
23719;DHT22;43322;52.230;5.702;2023-02-01T07:59:25;6.00;99.90
23719;DHT22;43322;52.230;5.702;2023-02-01T08:01:52;6.10;99.90
23719;DHT22;43322;52.230;5.702;2023-02-01T08:04:18;6.10;99.90
23719;DHT22;43322;52.230;5.702;2023-02-01T08:06:45;6.10;99.90
23719;DHT22;43322;52.230;5.702;2023-02-01T08:09:13;6.10;99.90
23719;DHT22;43322;52.230;5.702;2023-02-01T08:11:40;6.10;99.90
23719;DHT22;43322;52.230;5.702;2023-02-01T08:14:07;6.20;99.90
23719;DHT22;43322;52.230;5.702;2023-02-01T08:16:34;6.20;99.90
23719;DHT22;43322;52.230;5.702;2023-02-01T08:19:02;6.20;99.90
23719;DHT22;43322;52.230;5.702;2023-02-01T08:21:29;6.20;99.90
23719;DHT22;43322;52.230;5.702;2023-02-01T08:24:03;6.30;99.90
23719;DHT22;43322;52.230;5.702;2023-02-01T08:26:31;6.40;99.90
23719;DHT22;43322;52.230;5.702;2023-02-01T08:29:00;6.50;99.90
23719;DHT22;43322;52.230;5.702;2023-02-01T08:31:29;6.60;99.90
23719;DHT22;43322;52.230;5.702;2023-02-01T08:33:57;6.50;99.90
23719;DHT22;43322;52.230;5.702;2023-02-01T08:36:25;6.50;99.90
23719;DHT22;43322;52.230;5.702;2023-02-01T08:38:53;6.50;99.90
23719;DHT22;43322;52.230;5.702;2023-02-01T08:41:21;6.50;99.90
23719;DHT22;43322;52.230;5.702;2023-02-01T08:43:50;6.50;99.90
23719;DHT22;43322;52.230;5.702;2023-02-01T08:46:17;6.40;99.90
23719;DHT22;43322;52.230;5.702;2023-02-01T08:48:45;6.40;99.90
23719;DHT22;43322;52.230;5.702;2023-02-01T08:51:13;6.50;99.90
23719;DHT22;43322;52.230;5.702;2023-02-01T08:53:41;6.50;99.90
23719;DHT22;43322;52.230;5.702;2023-02-01T08:56:09;6.70;99.90
23719;DHT22;43322;52.230;5.702;2023-02-01T08:58:35;6.70;99.90
23719;DHT22;43322;52.230;5.702;2023-02-01T09:01:05;6.70;99.90
23719;DHT22;43322;52.230;5.702;2023-02-01T09:03:32;6.70;99.90
23719;DHT22;43322;52.230;5.702;2023-02-01T09:06:00;6.80;99.90
23719;DHT22;43322;52.230;5.702;2023-02-01T09:08:27;7.00;99.90
23719;DHT22;43322;52.230;5.702;2023-02-01T09:10:58;7.20;99.90
23719;DHT22;43322;52.230;5.702;2023-02-01T09:13:26;7.30;99.90
23719;DHT22;43322;52.230;5.702;2023-02-01T09:15:53;7.30;99.90
23719;DHT22;43322;52.230;5.702;2023-02-01T09:18:21;7.20;99.90
23719;DHT22;43322;52.230;5.702;2023-02-01T09:20:48;7.40;99.90
23719;DHT22;43322;52.230;5.702;2023-02-01T09:23:15;7.30;99.90
23719;DHT22;43322;52.230;5.702;2023-02-01T09:25:42;7.30;99.90
23719;DHT22;43322;52.230;5.702;2023-02-01T09:28:08;7.30;99.90
23719;DHT22;43322;52.230;5.702;2023-02-01T09:30:36;7.90;99.90
23719;DHT22;43322;52.230;5.702;2023-02-01T09:33:03;7.30;99.90
23719;DHT22;43322;52.230;5.702;2023-02-01T09:35:31;7.20;99.90
23719;DHT22;43322;52.230;5.702;2023-02-01T09:37:58;7.10;99.90
23719;DHT22;43322;52.230;5.702;2023-02-01T09:40:25;7.00;99.90
23719;DHT22;43322;52.230;5.702;2023-02-01T09:43:11;6.90;99.90
23719;DHT22;43322;52.230;5.702;2023-02-01T09:45:50;6.90;99.90
23719;DHT22;43322;52.230;5.702;2023-02-01T09:48:21;7.00;99.90
23719;DHT22;43322;52.230;5.702;2023-02-01T09:50:54;6.90;99.90
23719;DHT22;43322;52.230;5.702;2023-02-01T09:53:28;6.90;99.90
23719;DHT22;43322;52.230;5.702;2023-02-01T09:55:59;6.90;99.90
23719;DHT22;43322;52.230;5.702;2023-02-01T09:58:32;6.90;99.90
23719;DHT22;43322;52.230;5.702;2023-02-01T10:01:03;6.90;99.90
23719;DHT22;43322;52.230;5.702;2023-02-01T10:03:33;7.00;99.90
23719;DHT22;43322;52.230;5.702;2023-02-01T10:06:13;6.80;99.90
23719;DHT22;43322;52.230;5.702;2023-02-01T10:09:09;6.80;99.90
23719;DHT22;43322;52.230;5.702;2023-02-01T10:11:46;6.80;99.90
23719;DHT22;43322;52.230;5.702;2023-02-01T10:14:32;6.70;99.90
23719;DHT22;43322;52.230;5.702;2023-02-01T10:17:17;6.50;99.90
23719;DHT22;43322;52.230;5.702;2023-02-01T10:19:56;6.50;99.90
23719;DHT22;43322;52.230;5.702;2023-02-01T10:22:38;6.40;99.90
23719;DHT22;43322;52.230;5.702;2023-02-01T10:25:17;6.40;99.90
23719;DHT22;43322;52.230;5.702;2023-02-01T10:27:45;6.50;99.90
23719;DHT22;43322;52.230;5.702;2023-02-01T10:30:18;6.40;99.90
23719;DHT22;43322;52.230;5.702;2023-02-01T10:32:45;6.30;99.90
23719;DHT22;43322;52.230;5.702;2023-02-01T10:35:16;6.30;99.90
23719;DHT22;43322;52.230;5.702;2023-02-01T10:37:45;6.20;99.90
23719;DHT22;43322;52.230;5.702;2023-02-01T10:40:16;6.20;99.90
23719;DHT22;43322;52.230;5.702;2023-02-01T10:42:45;6.20;99.90
23719;DHT22;43322;52.230;5.702;2023-02-01T10:45:16;6.20;99.90
23719;DHT22;43322;52.230;5.702;2023-02-01T10:47:44;6.20;99.90
23719;DHT22;43322;52.230;5.702;2023-02-01T10:50:18;6.20;99.90
23719;DHT22;43322;52.230;5.702;2023-02-01T10:52:56;6.20;99.90
23719;DHT22;43322;52.230;5.702;2023-02-01T10:55:34;6.20;99.90
23719;DHT22;43322;52.230;5.702;2023-02-01T10:58:03;6.30;99.90
23719;DHT22;43322;52.230;5.702;2023-02-01T11:00:39;6.20;99.90
23719;DHT22;43322;52.230;5.702;2023-02-01T11:03:21;6.20;99.90
23719;DHT22;43322;52.230;5.702;2023-02-01T11:05:48;6.40;99.90
23719;DHT22;43322;52.230;5.702;2023-02-01T11:08:18;6.40;99.90
23719;DHT22;43322;52.230;5.702;2023-02-01T11:10:45;6.40;99.90
23719;DHT22;43322;52.230;5.702;2023-02-01T11:13:16;6.30;99.90
23719;DHT22;43322;52.230;5.702;2023-02-01T11:15:44;6.40;99.90
23719;DHT22;43322;52.230;5.702;2023-02-01T11:18:16;6.40;99.90
23719;DHT22;43322;52.230;5.702;2023-02-01T11:20:45;6.50;99.90
23719;DHT22;43322;52.230;5.702;2023-02-01T11:23:17;6.40;99.90
23719;DHT22;43322;52.230;5.702;2023-02-01T11:25:49;6.40;99.90
23719;DHT22;43322;52.230;5.702;2023-02-01T11:28:16;6.40;99.90
23719;DHT22;43322;52.230;5.702;2023-02-01T11:30:45;6.50;99.90
23719;DHT22;43322;52.230;5.702;2023-02-01T11:33:15;6.40;99.90
23719;DHT22;43322;52.230;5.702;2023-02-01T11:35:43;6.40;99.90
23719;DHT22;43322;52.230;5.702;2023-02-01T11:38:26;6.40;99.90
23719;DHT22;43322;52.230;5.702;2023-02-01T11:40:53;6.40;99.90
23719;DHT22;43322;52.230;5.702;2023-02-01T11:43:23;6.50;99.90
23719;DHT22;43322;52.230;5.702;2023-02-01T11:45:56;6.60;99.90
23719;DHT22;43322;52.230;5.702;2023-02-01T11:48:24;6.70;99.90
23719;DHT22;43322;52.230;5.702;2023-02-01T11:54:03;6.90;99.90
23719;DHT22;43322;52.230;5.702;2023-02-01T11:56:35;6.90;99.90
23719;DHT22;43322;52.230;5.702;2023-02-01T11:59:12;6.90;99.90
23719;DHT22;43322;52.230;5.702;2023-02-01T12:02:10;6.90;99.90
23719;DHT22;43322;52.230;5.702;2023-02-01T12:04:57;6.90;99.90
23719;DHT22;43322;52.230;5.702;2023-02-01T12:07:42;6.90;99.90
23719;DHT22;43322;52.230;5.702;2023-02-01T12:10:24;6.90;99.90
23719;DHT22;43322;52.230;5.702;2023-02-01T12:13:03;6.90;99.90
23719;DHT22;43322;52.230;5.702;2023-02-01T12:15:44;6.90;99.90
23719;DHT22;43322;52.230;5.702;2023-02-01T12:21:23;6.90;99.90
23719;DHT22;43322;52.230;5.702;2023-02-01T12:24:07;7.00;99.90
23719;DHT22;43322;52.230;5.702;2023-02-01T12:26:51;7.00;99.90
23719;DHT22;43322;52.230;5.702;2023-02-01T12:29:37;7.10;99.90
23719;DHT22;43322;52.230;5.702;2023-02-01T12:32:20;7.20;99.90
23719;DHT22;43322;52.230;5.702;2023-02-01T12:35:20;7.20;99.90
23719;DHT22;43322;52.230;5.702;2023-02-01T12:38:06;7.20;99.90
23719;DHT22;43322;52.230;5.702;2023-02-01T12:40:49;7.10;99.90
23719;DHT22;43322;52.230;5.702;2023-02-01T12:43:34;7.10;99.90
23719;DHT22;43322;52.230;5.702;2023-02-01T12:46:07;7.40;99.90
23719;DHT22;43322;52.230;5.702;2023-02-01T12:48:38;7.10;99.90
23719;DHT22;43322;52.230;5.702;2023-02-01T12:51:13;7.20;99.90
23719;DHT22;43322;52.230;5.702;2023-02-01T12:53:48;7.20;99.90
23719;DHT22;43322;52.230;5.702;2023-02-01T12:56:21;7.20;99.90
23719;DHT22;43322;52.230;5.702;2023-02-01T12:58:53;7.10;99.90
23719;DHT22;43322;52.230;5.702;2023-02-01T13:01:22;7.10;99.90
23719;DHT22;43322;52.230;5.702;2023-02-01T13:03:57;7.10;99.90
23719;DHT22;43322;52.230;5.702;2023-02-01T13:06:28;7.10;99.90
23719;DHT22;43322;52.230;5.702;2023-02-01T13:09:00;7.10;99.90
23719;DHT22;43322;52.230;5.702;2023-02-01T13:11:31;7.00;99.90
23719;DHT22;43322;52.230;5.702;2023-02-01T13:14:03;7.00;99.90
23719;DHT22;43322;52.230;5.702;2023-02-01T13:16:34;7.00;99.90
23719;DHT22;43322;52.230;5.702;2023-02-01T13:19:09;7.10;99.90
23719;DHT22;43322;52.230;5.702;2023-02-01T13:21:41;7.20;99.90
23719;DHT22;43322;52.230;5.702;2023-02-01T13:24:29;7.10;99.90
23719;DHT22;43322;52.230;5.702;2023-02-01T13:26:57;7.20;99.90
23719;DHT22;43322;52.230;5.702;2023-02-01T13:29:27;7.10;99.90
23719;DHT22;43322;52.230;5.702;2023-02-01T13:32:16;7.20;99.90
23719;DHT22;43322;52.230;5.702;2023-02-01T13:38:15;7.20;99.90
23719;DHT22;43322;52.230;5.702;2023-02-01T13:40:53;7.20;99.90
23719;DHT22;43322;52.230;5.702;2023-02-01T13:43:24;7.30;99.90
23719;DHT22;43322;52.230;5.702;2023-02-01T13:45:56;7.20;99.90
23719;DHT22;43322;52.230;5.702;2023-02-01T13:48:26;7.30;99.90
23719;DHT22;43322;52.230;5.702;2023-02-01T13:50:56;7.30;99.90
23719;DHT22;43322;52.230;5.702;2023-02-01T13:53:28;7.30;99.90
23719;DHT22;43322;52.230;5.702;2023-02-01T13:56:00;7.20;99.90
23719;DHT22;43322;52.230;5.702;2023-02-01T13:58:33;7.20;99.90
23719;DHT22;43322;52.230;5.702;2023-02-01T14:01:33;7.20;99.90
23719;DHT22;43322;52.230;5.702;2023-02-01T14:04:02;7.20;99.90
23719;DHT22;43322;52.230;5.702;2023-02-01T14:06:50;7.30;99.90
23719;DHT22;43322;52.230;5.702;2023-02-01T14:09:31;7.30;99.90
23719;DHT22;43322;52.230;5.702;2023-02-01T14:15:20;7.30;99.90
23719;DHT22;43322;52.230;5.702;2023-02-01T14:17:48;7.30;99.90
23719;DHT22;43322;52.230;5.702;2023-02-01T14:20:46;7.20;99.90
23719;DHT22;43322;52.230;5.702;2023-02-01T14:23:23;7.20;99.90
23719;DHT22;43322;52.230;5.702;2023-02-01T14:26:08;7.20;99.90
23719;DHT22;43322;52.230;5.702;2023-02-01T14:28:40;7.30;99.90
23719;DHT22;43322;52.230;5.702;2023-02-01T14:31:29;7.30;99.90
23719;DHT22;43322;52.230;5.702;2023-02-01T14:33:58;7.40;99.90
23719;DHT22;43322;52.230;5.702;2023-02-01T14:36:27;7.30;99.90
23719;DHT22;43322;52.230;5.702;2023-02-01T14:39:16;7.30;99.90
23719;DHT22;43322;52.230;5.702;2023-02-01T14:41:46;7.40;99.90
23719;DHT22;43322;52.230;5.702;2023-02-01T14:44:25;7.40;99.90
23719;DHT22;43322;52.230;5.702;2023-02-01T14:47:28;7.40;99.90
23719;DHT22;43322;52.230;5.702;2023-02-01T14:49:58;7.50;99.90
23719;DHT22;43322;52.230;5.702;2023-02-01T14:52:34;7.50;99.90
23719;DHT22;43322;52.230;5.702;2023-02-01T14:55:06;7.40;99.90
23719;DHT22;43322;52.230;5.702;2023-02-01T14:57:39;7.50;99.90
23719;DHT22;43322;52.230;5.702;2023-02-01T15:00:15;7.40;99.90
23719;DHT22;43322;52.230;5.702;2023-02-01T15:02:46;7.40;99.90
23719;DHT22;43322;52.230;5.702;2023-02-01T15:05:27;7.30;99.90
23719;DHT22;43322;52.230;5.702;2023-02-01T15:08:02;7.30;99.90
23719;DHT22;43322;52.230;5.702;2023-02-01T15:10:32;7.20;99.90
23719;DHT22;43322;52.230;5.702;2023-02-01T15:13:00;7.00;99.90
23719;DHT22;43322;52.230;5.702;2023-02-01T15:15:27;6.80;99.90
23719;DHT22;43322;52.230;5.702;2023-02-01T15:17:59;6.40;99.90
23719;DHT22;43322;52.230;5.702;2023-02-01T15:20:28;6.20;99.90
23719;DHT22;43322;52.230;5.702;2023-02-01T15:22:57;6.80;99.90
23719;DHT22;43322;52.230;5.702;2023-02-01T15:25:26;6.40;99.90
23719;DHT22;43322;52.230;5.702;2023-02-01T15:27:54;5.80;99.90
23719;DHT22;43322;52.230;5.702;2023-02-01T15:30:23;5.70;99.90
23719;DHT22;43322;52.230;5.702;2023-02-01T15:32:51;5.50;99.90
23719;DHT22;43322;52.230;5.702;2023-02-01T15:35:34;5.50;99.90
23719;DHT22;43322;52.230;5.702;2023-02-01T15:38:30;5.90;99.90
23719;DHT22;43322;52.230;5.702;2023-02-01T15:40:58;5.50;99.90
23719;DHT22;43322;52.230;5.702;2023-02-01T15:43:26;5.50;99.90
23719;DHT22;43322;52.230;5.702;2023-02-01T15:45:57;5.40;99.90
23719;DHT22;43322;52.230;5.702;2023-02-01T15:48:26;5.40;99.90
23719;DHT22;43322;52.230;5.702;2023-02-01T15:50:55;5.50;99.90
23719;DHT22;43322;52.230;5.702;2023-02-01T15:53:24;5.50;99.90
23719;DHT22;43322;52.230;5.702;2023-02-01T15:55:59;5.50;99.90
23719;DHT22;43322;52.230;5.702;2023-02-01T15:58:26;5.50;99.90
23719;DHT22;43322;52.230;5.702;2023-02-01T16:00:56;5.60;99.90
23719;DHT22;43322;52.230;5.702;2023-02-01T16:03:33;5.60;99.90
23719;DHT22;43322;52.230;5.702;2023-02-01T16:06:05;5.70;99.90
23719;DHT22;43322;52.230;5.702;2023-02-01T16:08:33;5.80;99.90
23719;DHT22;43322;52.230;5.702;2023-02-01T16:11:22;5.90;99.90
23719;DHT22;43322;52.230;5.702;2023-02-01T16:13:50;5.90;99.90
23719;DHT22;43322;52.230;5.702;2023-02-01T16:16:17;6.00;99.90
23719;DHT22;43322;52.230;5.702;2023-02-01T16:18:44;6.00;99.90
23719;DHT22;43322;52.230;5.702;2023-02-01T16:21:12;6.00;99.90
23719;DHT22;43322;52.230;5.702;2023-02-01T16:23:39;6.00;99.90
23719;DHT22;43322;52.230;5.702;2023-02-01T16:26:06;6.10;99.90